EBCI

Brussels South Charleroi Airport

Brussels, Belgium
METAR EBCI 201450Z 02004KT 350V070 CAVOK 04/M01 Q1017 NOSIG
Observed Flight Rules
Feb-20 @ 14:50 UTC (5 hours ago) Visual Flight Rules
Wind Visibility Clouds
20° at 4 knots 10,000+ meters
  • Clear skies
Temperatures Readings
Current 4°C / 39°F
Dewpoint -1°C / 30°F
Humidity 70%
Altimeter 30.03" Hg
Pressure 1017 hPa
Elevation 192
METAR EBCI 201450Z 02004KT 350V070 CAVOK 04/M01 Q1017 NOSIG
Observed Flight Rules
Feb-20 @ 14:50 UTC
(5 hours ago)
VFR
Wind Visibility
20° at 4 knots 10,000+ meters
Clouds
  • Clear skies
Temperature Dewpoint
4°C / 39°F -1°C / 30°F
Humidity Altimeter Pressure
70% 30.03" Hg 1017 hPa